Startpagina
METAR-TAF:

METAR-TAF

Vliegvelden :

Luchthaven Genève

Genève, Zwitserland

breedte: 46-15N, lengte: 006-08E, hoogte: 420 m

Actueel weer

Dit bericht is 19 minuten geleden gemaakt, om 20:50 UTC
Wind 1 kt uit variabele richting
Temperatuur 15°C
Vochtigheid 100%
Druk 1016 hPa
Zicht 10 km of meer
Weinig wolken op 6000 ft
Verspreide wolken op 7000 ft
Gebroken wolken op 10000 ft

METAR: LSGG 222050Z VRB01KT 9999 FEW060 SCT070 BKN100 15/15 Q1016 NOSIG

Tijdstip: 23:09 (21:09 UTC)

Verwachting

Dit bericht is 44 minuten geleden gemaakt, om 20:25 UTC
Verwachting geldig van 22 om 21 UTC tot 24 om 03 UTC
Wind 4 kt uit het westzuidwesten
Zicht 10 km of meer
Weinig wolken op 5000 ft
Gebroken wolken op 9000 ft
Kans 30% :
Tijdelijke
van 23 om 12 UTC tot 23 om 16 UTC
Wind 15 kt uit variabele richting met uitschieters tot 25 kt
Zicht: 4500 m
Verspreide wolken op 4000 ft, Cumulonimbus.
onweer, regen

TAF: LSGG 222025Z 2221/2403 24004KT 9999 FEW050 BKN090 TX21/2315Z TN12/2305Z PROB30 TEMPO 2312/2316 VRB15G25KT 4500 TSRA SCT040CB

Waarnemingen en weersverwachtingen van meer dan 4000 vliegvelden (METAR en TAF).

De beschikbare stations zijn de gele en rode punten op de kaart.

Ga met uw muis naar het station om de naam te zien.

Klik dan om waarnemingen en weersverwachtingen te zien.

kaart wijzigen: klik op de groene knoppen met een zwart kruis om in te zoomen, op de groene knop met een streepje om uit te zoomen of op de groene pijlen voor aangrenzende kaarten.


METAR-TAF: